Time;durP1;ratioP1;P1;durP2;ratioP2;P2;SDS_P1;SDS_P2;PMS_P1;PMS_P2;Temp;Humidity;BMP_temperature;BMP_pressure;BME280_temperature;BME280_humidity;BME280_pressure;Samples;Min_cycle;Max_cycle;Signal;HPM_P1;HPM_P2
2022/09/24 00:01:37;;;;;;;;;;;;;;;;;;5089203;28;20062;-78
2022/09/24 00:04:07;;;;;;;64.53;51.13;;;;;;;;;;5068564;28;20384;-77
2022/09/24 00:06:35;;;;;;;62.63;48.08;;;;;;;;;;5070259;28;20044;-78
2022/09/24 00:09:01;;;;;;;66.85;50.75;;;;;;;;;;5069143;28;20044;-78
2022/09/24 00:11:28;;;;;;;73.70;52.13;;;;;;;;;;5067697;28;20160;-78
2022/09/24 00:13:55;;;;;;;71.25;52.78;;;;;;;;;;5068987;28;20051;-78
2022/09/24 00:16:22;;;;;;;72.53;54.05;;;;;;;;;;5069409;28;20355;-77
2022/09/24 00:18:48;;;;;;;72.25;54.63;;;;;;;;;;5068023;28;20048;-78
2022/09/24 00:21:14;;;;;;;;;;;;;;;;;;5067475;28;20154;-77
2022/09/24 00:23:40;;;;;;;67.63;53.22;;;;;;;;;;5086579;28;20023;-79
2022/09/24 00:28:52;;;;;;;78.13;58.65;;;;;;;;;;5069064;28;20074;-79
2022/09/24 00:31:18;;;;;;;81.03;60.00;;;;;;;;;;5067681;28;20044;-77
2022/09/24 00:33:44;;;;;;;77.28;57.40;;;;;;;;;;5070356;28;20048;-78
2022/09/24 00:36:10;;;;;;;77.13;58.00;;;;;;;;;;5068392;28;20406;-73
2022/09/24 00:38:37;;;;;;;82.07;61.20;;;;;;;;;;5069583;28;20052;-79
2022/09/24 00:41:03;;;;;;;78.30;60.58;;;;;;;;;;5068781;28;20052;-78
2022/09/24 00:43:35;;;;;;;76.22;58.85;;;;;;;;;;5058978;28;20127;-78
2022/09/24 00:46:10;;;;;;;77.80;57.75;;;;;;;;;;5068374;28;20070;-78
2022/09/24 00:48:39;;;;;;;84.85;61.80;;;;;;;;;;5084497;28;20079;-78
2022/09/24 00:51:08;;;;;;;85.80;64.10;;;;;;;;;;5088547;28;20451;-78
2022/09/24 00:53:34;;;;;;;85.38;61.70;;;;;;;;;;5065401;28;20062;-78
2022/09/24 00:56:00;;;;;;;;;;;;;;;;;;5067940;28;20082;-78
2022/09/24 00:58:28;;;;;;;82.55;60.60;;;;;;;;;;5075584;28;19920;-77
2022/09/24 01:00:57;;;;;;;85.40;62.45;;;;;;;;;;5088549;28;20139;-75
2022/09/24 01:03:24;;;;;;;83.90;62.17;;;;;;;;;;5083914;28;20048;-77
2022/09/24 01:05:51;;;;;;;88.70;65.95;;;;;;;;;;5083701;28;20455;-80
2022/09/24 01:08:18;;;;;;;96.65;71.05;;;;;;;;;;5073833;28;20115;-84
2022/09/24 01:11:03;;;;;;;98.90;69.30;;;;;;;;;;5056863;28;20105;-75
2022/09/24 01:13:29;;;;;;;116.28;77.03;;;;;;;;;;5071368;28;20208;-74
2022/09/24 01:15:59;;;;;;;121.47;81.53;;;;;;;;;;5071084;28;20051;-71
2022/09/24 01:18:46;;;;;;;116.05;80.90;;;;;;;;;;5070427;28;20050;-70
2022/09/24 01:21:27;;;;;;;125.20;80.20;;;;;;;;;;5071902;28;20138;-71
2022/09/24 01:24:03;;;;;;;125.57;81.47;;;;;;;;;;5091914;28;20395;-71
2022/09/24 01:26:38;;;;;;;116.53;80.10;;;;;;;;;;5082835;28;20685;-71
2022/09/24 01:29:22;;;;;;;153.57;90.93;;;;;;;;;;5071994;28;20397;-71
2022/09/24 01:31:53;;;;;;;151.63;89.68;;;;;;;;;;5090359;28;20120;-71
2022/09/24 01:34:22;;;;;;;148.55;91.30;;;;;;;;;;5092209;28;20152;-71
2022/09/24 01:36:49;;;;;;;110.55;79.47;;;;;;;;;;5081424;28;20052;-71
2022/09/24 01:39:16;;;;;;;124.65;84.78;;;;;;;;;;5053692;28;20174;-71
2022/09/24 01:41:43;;;;;;;135.60;87.78;;;;;;;;;;5084436;28;20149;-70
2022/09/24 01:44:10;;;;;;;146.57;95.35;;;;;;;;;;5072053;28;20079;-73
2022/09/24 01:46:40;;;;;;;141.57;96.72;;;;;;;;;;5071297;28;20120;-75
2022/09/24 01:49:06;;;;;;;151.27;101.10;;;;;;;;;;5037080;28;20112;-75
2022/09/24 01:51:37;;;;;;;144.13;94.97;;;;;;;;;;5081494;28;20048;-75
2022/09/24 01:54:05;;;;;;;227.93;116.22;;;;;;;;;;5090284;28;20044;-83
2022/09/24 01:56:38;;;;;;;169.55;100.32;;;;;;;;;;5091152;28;20143;-87
2022/09/24 01:59:16;;;;;;;181.00;108.47;;;;;;;;;;5075621;28;20191;-86
2022/09/24 02:01:45;;;;;;;169.02;103.03;;;;;;;;;;5070776;28;20118;-85
2022/09/24 02:04:13;;;;;;;172.90;99.57;;;;;;;;;;5071419;28;20048;-83
2022/09/24 02:06:46;;;;;;;210.98;115.90;;;;;;;;;;5071323;28;20127;-85
2022/09/24 02:09:31;;;;;;;222.13;117.88;;;;;;;;;;5070866;28;20083;-86
2022/09/24 02:12:00;;;;;;;209.00;111.90;;;;;;;;;;5068279;28;20546;-89
2022/09/24 02:14:28;;;;;;;221.48;117.07;;;;;;;;;;5072126;28;20131;-89
2022/09/24 02:16:54;;;;;;;233.57;119.82;;;;;;;;;;5070804;28;20402;-87
2022/09/24 02:19:20;;;;;;;;;;;;;;;;;;5071706;28;20130;-86
2022/09/24 02:21:46;;;;;;;330.85;139.77;;;;;;;;;;5071968;28;20360;-86
2022/09/24 02:24:20;;;;;;;238.10;130.98;;;;;;;;;;5091482;28;20390;-87
2022/09/24 02:26:46;;;;;;;262.30;129.38;;;;;;;;;;5090768;28;20044;-85
2022/09/24 02:29:12;;;;;;;335.27;141.60;;;;;;;;;;5084027;28;20040;-81
2022/09/24 02:31:42;;;;;;;244.27;125.57;;;;;;;;;;5078480;28;20128;-76
2022/09/24 02:34:20;;;;;;;213.82;118.65;;;;;;;;;;5053139;28;20060;-77
2022/09/24 02:36:50;;;;;;;296.33;127.95;;;;;;;;;;5070088;28;20131;-75
2022/09/24 02:39:17;;;;;;;190.57;106.40;;;;;;;;;;5070619;28;20840;-71
2022/09/24 02:41:46;;;;;;;;;;;;;;;;;;5073987;28;20127;-72
2022/09/24 02:44:13;;;;;;;222.73;111.28;;;;;;;;;;5078444;28;19931;-71
2022/09/24 02:46:40;;;;;;;213.35;110.93;;;;;;;;;;5069817;28;20058;-71
2022/09/24 02:49:06;;;;;;;196.55;105.78;;;;;;;;;;5069696;28;20052;-72
2022/09/24 02:51:32;;;;;;;;;;;;;;;;;;5069325;28;20123;-67
2022/09/24 02:54:00;;;;;;;210.50;107.65;;;;;;;;;;5084838;28;20003;-72
2022/09/24 02:56:29;;;;;;;279.65;116.13;;;;;;;;;;5090138;28;20052;-72
2022/09/24 02:58:55;;;;;;;190.45;105.93;;;;;;;;;;5089835;28;20138;-71
2022/09/24 03:01:22;;;;;;;268.50;112.38;;;;;;;;;;5079247;28;20135;-70
2022/09/24 03:03:48;;;;;;;232.57;111.53;;;;;;;;;;5076766;28;20687;-70
2022/09/24 03:06:14;;;;;;;;;;;;;;;;;;5070340;28;20372;-70
2022/09/24 03:08:41;;;;;;;380.45;139.35;;;;;;;;;;5069010;28;19920;-70
2022/09/24 03:11:08;;;;;;;190.82;100.03;;;;;;;;;;5054404;28;20041;-71
2022/09/24 03:13:34;;;;;;;200.95;99.97;;;;;;;;;;5075105;28;20401;-71
2022/09/24 03:16:00;;;;;;;262.58;113.10;;;;;;;;;;5085434;28;20492;-71
2022/09/24 03:18:26;;;;;;;197.82;93.10;;;;;;;;;;5071735;28;20147;-70
2022/09/24 03:20:59;;;;;;;275.15;108.55;;;;;;;;;;5089129;28;20063;-72
2022/09/24 03:23:25;;;;;;;287.48;107.65;;;;;;;;;;5069499;28;20117;-71
2022/09/24 03:25:51;;;;;;;353.77;121.05;;;;;;;;;;5080403;28;20363;-71
2022/09/24 03:28:18;;;;;;;221.82;100.68;;;;;;;;;;5086551;28;20048;-70
2022/09/24 03:30:59;;;;;;;239.73;104.53;;;;;;;;;;5089445;28;20130;-70
2022/09/24 03:33:30;;;;;;;295.92;110.32;;;;;;;;;;5076326;28;20095;-71
2022/09/24 03:36:04;;;;;;;134.15;69.82;;;;;;;;;;5068918;28;20055;-70
2022/09/24 03:38:31;;;;;;;229.63;92.20;;;;;;;;;;5029408;28;20049;-72
2022/09/24 03:40:57;;;;;;;;;;;;;;;;;;5047105;28;20117;-72
2022/09/24 03:43:23;;;;;;;396.27;121.00;;;;;;;;;;5040343;28;20035;-71
2022/09/24 03:45:50;;;;;;;402.85;116.47;;;;;;;;;;5032680;28;20129;-71
2022/09/24 03:48:17;;;;;;;273.00;102.57;;;;;;;;;;5049219;28;20124;-71
2022/09/24 03:50:43;;;;;;;212.63;92.38;;;;;;;;;;5034487;28;20140;-70
2022/09/24 03:53:09;;;;;;;335.65;112.65;;;;;;;;;;5028664;28;20084;-72
2022/09/24 03:55:35;;;;;;;;;;;;;;;;;;5029575;28;20061;-71
2022/09/24 03:58:01;;;;;;;375.15;116.28;;;;;;;;;;5046962;28;20015;-72
2022/09/24 04:00:27;;;;;;;373.90;116.90;;;;;;;;;;5041267;28;20045;-72
2022/09/24 04:02:53;;;;;;;300.25;108.18;;;;;;;;;;5027176;28;20555;-73
2022/09/24 04:05:19;;;;;;;286.90;106.05;;;;;;;;;;5028476;28;20132;-72
2022/09/24 04:07:45;;;;;;;185.93;81.95;;;;;;;;;;5041335;28;20064;-70
2022/09/24 04:10:12;;;;;;;214.32;85.70;;;;;;;;;;5046686;28;20048;-71
2022/09/24 04:12:38;;;;;;;167.20;72.65;;;;;;;;;;5040348;28;20178;-72
2022/09/24 04:15:04;;;;;;;326.55;100.47;;;;;;;;;;5031000;28;20120;-71
2022/09/24 04:17:30;;;;;;;127.60;63.42;;;;;;;;;;5035413;28;20041;-71
2022/09/24 04:19:57;;;;;;;155.40;57.42;;;;;;;;;;5047831;28;20052;-71
2022/09/24 04:22:24;;;;;;;168.75;59.92;;;;;;;;;;5032239;28;20059;-71
2022/09/24 04:24:51;;;;;;;89.00;42.17;;;;;;;;;;5026769;28;20053;-71
2022/09/24 04:27:18;;;;;;;84.20;36.28;;;;;;;;;;5033544;28;20176;-73
2022/09/24 04:29:44;;;;;;;56.40;25.83;;;;;;;;;;5046650;28;20111;-73
2022/09/24 04:32:10;;;;;;;55.58;23.02;;;;;;;;;;5035204;28;20065;-73
2022/09/24 04:34:36;;;;;;;42.15;18.20;;;;;;;;;;5026778;28;20136;-73
2022/09/24 04:37:02;;;;;;;38.20;14.73;;;;;;;;;;5044342;28;20060;-71
2022/09/24 04:39:28;;;;;;;34.60;10.75;;;;;;;;;;5087796;28;20052;-73
2022/09/24 04:41:54;;;;;;;33.53;11.13;;;;;;;;;;5088795;28;20062;-73
2022/09/24 04:44:21;;;;;;;44.47;11.93;;;;;;;;;;5080481;28;20148;-74
2022/09/24 04:46:47;;;;;;;32.75;8.07;;;;;;;;;;5079998;28;20347;-68
2022/09/24 04:49:13;;;;;;;28.48;6.50;;;;;;;;;;5082446;28;20052;-75
2022/09/24 04:51:39;;;;;;;25.10;6.10;;;;;;;;;;5080791;28;20075;-75
2022/09/24 04:54:05;;;;;;;26.63;6.18;;;;;;;;;;5087009;28;20159;-75
2022/09/24 04:56:32;;;;;;;26.02;6.10;;;;;;;;;;5072972;28;20142;-75
2022/09/24 04:58:58;;;;;;;23.48;6.30;;;;;;;;;;5076310;28;20068;-75
2022/09/24 05:01:24;;;;;;;23.40;6.07;;;;;;;;;;5072693;28;20101;-75
2022/09/24 05:03:50;;;;;;;;;;;;;;;;;;5071757;28;20056;-75
2022/09/24 05:06:16;;;;;;;23.23;5.68;;;;;;;;;;5060260;28;19932;-75
2022/09/24 05:08:42;;;;;;;30.23;6.72;;;;;;;;;;5085539;28;20067;-76
2022/09/24 05:11:08;;;;;;;26.23;5.53;;;;;;;;;;5079195;28;20047;-73
2022/09/24 05:13:34;;;;;;;29.55;6.43;;;;;;;;;;5099360;28;20089;-74
2022/09/24 05:16:02;;;;;;;19.38;5.72;;;;;;;;;;5080877;28;20040;-74
2022/09/24 05:18:28;;;;;;;21.50;5.75;;;;;;;;;;5072509;28;20119;-75
2022/09/24 05:20:55;;;;;;;30.83;5.70;;;;;;;;;;5076079;28;20101;-75
2022/09/24 05:23:21;;;;;;;25.30;5.88;;;;;;;;;;5076346;28;20120;-74
2022/09/24 05:28:32;;;;;;;23.35;5.05;;;;;;;;;;5077490;28;20048;-73
2022/09/24 05:30:59;;;;;;;29.02;6.65;;;;;;;;;;5080093;28;20095;-75
2022/09/24 05:33:25;;;;;;;22.48;5.38;;;;;;;;;;5077479;28;20124;-76
2022/09/24 05:35:54;;;;;;;33.88;5.65;;;;;;;;;;5070950;28;20045;-72
2022/09/24 05:38:21;;;;;;;19.33;4.90;;;;;;;;;;5090733;28;20056;-74
2022/09/24 05:40:47;;;;;;;;;;;;;;;;;;5087928;28;20124;-73
2022/09/24 05:43:15;;;;;;;19.83;4.38;;;;;;;;;;5070405;28;19958;-73
2022/09/24 05:45:41;;;;;;;23.08;4.55;;;;;;;;;;5079418;28;20457;-74
2022/09/24 05:48:07;;;;;;;21.67;4.82;;;;;;;;;;5072052;28;20472;-73
2022/09/24 05:50:33;;;;;;;23.35;4.97;;;;;;;;;;5071517;28;20044;-74
2022/09/24 05:53:03;;;;;;;26.73;4.72;;;;;;;;;;5078518;28;20150;-73
2022/09/24 05:55:29;;;;;;;23.27;5.05;;;;;;;;;;5082458;28;20131;-76
2022/09/24 05:57:55;;;;;;;18.80;4.40;;;;;;;;;;5076962;28;20081;-76
2022/09/24 06:00:21;;;;;;;23.63;5.50;;;;;;;;;;5086920;28;20032;-76
2022/09/24 06:02:49;;;;;;;24.30;5.05;;;;;;;;;;5087143;28;20474;-77
2022/09/24 06:05:15;;;;;;;25.23;4.95;;;;;;;;;;5090170;28;20056;-77
2022/09/24 06:07:41;;;;;;;24.85;5.68;;;;;;;;;;5071725;28;20043;-77
2022/09/24 06:10:08;;;;;;;30.23;5.50;;;;;;;;;;5069476;28;20048;-69
2022/09/24 06:12:35;;;;;;;28.45;6.32;;;;;;;;;;5083657;28;20148;-74
2022/09/24 06:15:02;;;;;;;27.48;5.50;;;;;;;;;;5087472;28;20048;-73
2022/09/24 06:17:29;;;;;;;29.13;6.32;;;;;;;;;;5090068;28;20048;-74
2022/09/24 06:19:56;;;;;;;21.10;5.40;;;;;;;;;;5070215;28;20040;-75
2022/09/24 06:22:22;;;;;;;26.25;5.60;;;;;;;;;;5068972;28;20345;-76
2022/09/24 06:24:50;;;;;;;24.00;5.47;;;;;;;;;;5077666;28;20048;-74
2022/09/24 06:27:16;;;;;;;24.30;5.30;;;;;;;;;;5073317;28;20091;-77
2022/09/24 06:29:42;;;;;;;28.77;6.43;;;;;;;;;;5069540;28;20105;-74
2022/09/24 06:32:08;;;;;;;29.38;6.40;;;;;;;;;;5083419;28;20128;-75
2022/09/24 06:34:34;;;;;;;26.52;5.18;;;;;;;;;;5080815;28;20131;-74
2022/09/24 06:37:00;;;;;;;30.55;5.32;;;;;;;;;;5065385;28;20434;-75
2022/09/24 06:39:26;;;;;;;28.52;5.47;;;;;;;;;;5084156;28;20044;-72
2022/09/24 06:41:53;;;;;;;34.70;6.93;;;;;;;;;;5084584;28;20044;-74
2022/09/24 06:44:19;;;;;;;;;;;;;;;;;;5086395;28;20119;-72
2022/09/24 06:46:46;;;;;;;23.90;5.13;;;;;;;;;;5083991;28;19928;-74
2022/09/24 06:49:12;;;;;;;33.78;6.40;;;;;;;;;;5082889;28;20301;-74
2022/09/24 06:51:39;;;;;;;25.05;5.32;;;;;;;;;;5083659;28;20044;-73
2022/09/24 06:54:05;;;;;;;;;;;;;;;;;;5085557;28;20087;-70
2022/09/24 06:56:31;;;;;;;26.73;6.05;;;;;;;;;;5085284;28;19998;-74
2022/09/24 06:58:57;;;;;;;32.10;5.72;;;;;;;;;;5077884;28;20052;-73
2022/09/24 07:01:23;;;;;;;22.02;5.07;;;;;;;;;;5064517;28;20040;-73
2022/09/24 07:03:49;;;;;;;25.27;5.03;;;;;;;;;;5084568;28;20056;-74
2022/09/24 07:06:15;;;;;;;22.98;5.70;;;;;;;;;;5059798;28;20082;-75
2022/09/24 07:08:42;;;;;;;26.90;5.47;;;;;;;;;;5076565;28;20448;-75
2022/09/24 07:11:08;;;;;;;22.63;4.70;;;;;;;;;;5079658;28;20060;-70
2022/09/24 07:13:34;;;;;;;24.90;5.07;;;;;;;;;;5076562;28;20127;-74
2022/09/24 07:16:00;;;;;;;31.05;4.47;;;;;;;;;;5067417;28;20052;-75
2022/09/24 07:18:26;;;;;;;24.73;5.07;;;;;;;;;;5080751;28;20044;-74
2022/09/24 07:20:56;;;;;;;26.27;5.03;;;;;;;;;;5077149;28;20108;-72
2022/09/24 07:23:22;;;;;;;27.08;5.57;;;;;;;;;;5083429;28;20123;-73
2022/09/24 07:25:50;;;;;;;23.13;4.63;;;;;;;;;;5080603;28;20052;-73
2022/09/24 07:28:17;;;;;;;25.55;5.00;;;;;;;;;;5073352;28;20148;-73
2022/09/24 07:30:43;;;;;;;25.88;5.72;;;;;;;;;;5082888;28;20104;-75
2022/09/24 07:33:09;;;;;;;23.30;5.18;;;;;;;;;;5087055;28;20076;-71
2022/09/24 07:35:39;;;;;;;20.67;5.25;;;;;;;;;;5065559;28;20469;-73
2022/09/24 07:38:15;;;;;;;20.88;4.63;;;;;;;;;;5079739;28;20147;-74
2022/09/24 07:40:43;;;;;;;24.45;5.13;;;;;;;;;;5080975;28;20713;-73
2022/09/24 07:43:12;;;;;;;18.42;3.88;;;;;;;;;;5083748;28;20116;-73
2022/09/24 07:45:38;;;;;;;19.08;4.13;;;;;;;;;;5080396;28;20048;-73
2022/09/24 07:48:05;;;;;;;15.43;3.67;;;;;;;;;;5083203;28;20044;-72
2022/09/24 07:50:33;;;;;;;15.40;3.75;;;;;;;;;;5082275;28;20508;-73
2022/09/24 07:53:00;;;;;;;16.13;3.50;;;;;;;;;;5083073;28;20270;-75
2022/09/24 07:55:27;;;;;;;12.65;3.05;;;;;;;;;;5081516;28;20048;-75
2022/09/24 07:57:52;;;;;;;;;;;;;;;;;;5078762;28;20119;-75
2022/09/24 08:00:19;;;;;;;19.67;3.80;;;;;;;;;;5075075;28;20045;-75
2022/09/24 08:02:46;;;;;;;20.85;3.97;;;;;;;;;;5071528;28;20081;-72
2022/09/24 08:05:14;;;;;;;15.82;3.58;;;;;;;;;;5072621;28;20460;-72
2022/09/24 08:07:40;;;;;;;19.92;4.00;;;;;;;;;;5076617;28;20074;-70
2022/09/24 08:10:06;;;;;;;18.10;4.13;;;;;;;;;;5063924;28;20048;-69
2022/09/24 08:12:32;;;;;;;17.83;4.32;;;;;;;;;;5088574;28;20042;-71
2022/09/24 08:14:58;;;;;;;24.02;5.38;;;;;;;;;;5059594;28;20051;-71
2022/09/24 08:17:25;;;;;;;17.27;4.05;;;;;;;;;;5085818;28;20043;-71
2022/09/24 08:19:55;;;;;;;19.95;4.63;;;;;;;;;;5073546;28;20453;-72
2022/09/24 08:22:22;;;;;;;21.60;4.75;;;;;;;;;;5053139;28;20043;-72
2022/09/24 08:24:49;;;;;;;18.83;3.95;;;;;;;;;;5079827;28;20062;-75
2022/09/24 08:27:16;;;;;;;23.77;4.85;;;;;;;;;;5075857;28;20071;-73
2022/09/24 08:29:42;;;;;;;21.50;4.50;;;;;;;;;;5088857;28;20047;-72
2022/09/24 08:32:08;;;;;;;23.20;4.22;;;;;;;;;;5088076;28;20131;-72
2022/09/24 08:34:37;;;;;;;21.92;4.43;;;;;;;;;;5080157;28;20047;-74
2022/09/24 08:37:04;;;;;;;18.40;4.15;;;;;;;;;;5083955;28;20287;-74
2022/09/24 08:39:31;;;;;;;20.90;4.50;;;;;;;;;;5066825;28;20063;-76
2022/09/24 08:42:00;;;;;;;20.67;4.18;;;;;;;;;;5090789;28;20441;-74
2022/09/24 08:47:48;;;;;;;24.52;4.57;;;;;;;;;;5045868;28;20113;-74
2022/09/24 08:50:31;;;;;;;20.60;4.30;;;;;;;;;;5069422;28;20049;-73
2022/09/24 08:53:01;;;;;;;21.70;4.38;;;;;;;;;;5060299;28;20245;-73
2022/09/24 08:55:31;;;;;;;21.67;4.45;;;;;;;;;;5088041;28;20160;-75
2022/09/24 08:58:00;;;;;;;23.65;4.63;;;;;;;;;;5079592;28;20330;-76
2022/09/24 09:00:29;;;;;;;20.77;4.38;;;;;;;;;;5105163;28;20044;-77
2022/09/24 09:03:01;;;;;;;18.67;3.58;;;;;;;;;;5091838;28;20039;-72
2022/09/24 09:05:43;;;;;;;19.83;3.65;;;;;;;;;;5096652;28;20186;-72
2022/09/24 09:08:16;;;;;;;18.00;3.45;;;;;;;;;;5068992;28;20080;-73
2022/09/24 09:10:42;;;;;;;17.08;3.30;;;;;;;;;;5095230;28;20099;-73
2022/09/24 09:13:11;;;;;;;18.85;3.40;;;;;;;;;;5095958;28;20048;-74
2022/09/24 09:15:42;;;;;;;13.73;3.50;;;;;;;;;;5070346;28;20452;-80
2022/09/24 09:18:11;;;;;;;16.80;3.13;;;;;;;;;;5071879;28;20435;-78
2022/09/24 09:20:41;;;;;;;12.55;2.75;;;;;;;;;;5101723;28;20425;-74
2022/09/24 09:23:16;;;;;;;16.60;3.33;;;;;;;;;;5090548;28;20040;-74
2022/09/24 09:25:50;;;;;;;16.02;3.40;;;;;;;;;;5092079;28;20399;-77
2022/09/24 09:28:16;;;;;;;15.15;3.22;;;;;;;;;;5081545;28;20064;-73
2022/09/24 09:30:42;;;;;;;;;;;;;;;;;;5105760;28;20036;-77
2022/09/24 09:33:21;;;;;;;13.20;3.40;;;;;;;;;;5096242;28;20357;-74
2022/09/24 09:35:53;;;;;;;14.00;2.45;;;;;;;;;;5076362;28;20094;-79
2022/09/24 09:38:19;;;;;;;14.25;2.70;;;;;;;;;;5084661;28;20159;-78
2022/09/24 09:40:45;;;;;;;9.80;2.42;;;;;;;;;;5110831;28;20056;-71
2022/09/24 09:43:12;;;;;;;10.57;2.50;;;;;;;;;;5103305;28;20039;-79
2022/09/24 09:45:46;;;;;;;12.07;2.40;;;;;;;;;;5080420;28;20052;-77
2022/09/24 09:48:15;;;;;;;13.23;2.53;;;;;;;;;;5072941;28;20398;-81
2022/09/24 09:50:46;;;;;;;11.98;2.42;;;;;;;;;;5093966;28;20118;-81
2022/09/24 09:53:19;;;;;;;8.40;2.35;;;;;;;;;;5095917;28;20040;-79
2022/09/24 09:55:57;;;;;;;7.13;2.00;;;;;;;;;;5091810;28;20503;-85
2022/09/24 09:58:44;;;;;;;7.28;2.33;;;;;;;;;;5104318;28;20063;-77
2022/09/24 10:01:13;;;;;;;8.88;2.22;;;;;;;;;;5074775;28;20048;-77
2022/09/24 10:03:45;;;;;;;10.10;2.63;;;;;;;;;;5065441;28;20048;-81
2022/09/24 10:06:13;;;;;;;9.45;2.22;;;;;;;;;;5081926;28;20062;-85
2022/09/24 10:08:39;;;;;;;9.60;2.45;;;;;;;;;;5077905;28;20068;-79
2022/09/24 10:11:06;;;;;;;;;;;;;;;;;;5074746;28;20225;-85
2022/09/24 10:13:33;;;;;;;11.27;2.50;;;;;;;;;;5059831;28;19927;-78
2022/09/24 10:16:02;;;;;;;8.95;2.22;;;;;;;;;;5083452;28;20052;-77
2022/09/24 10:18:33;;;;;;;11.75;2.95;;;;;;;;;;5063281;28;20120;-71
2022/09/24 10:21:03;;;;;;;9.68;2.30;;;;;;;;;;5073805;28;20527;-75
2022/09/24 10:23:37;;;;;;;10.52;2.50;;;;;;;;;;5075924;28;20052;-71
2022/09/24 10:26:04;;;;;;;11.70;2.90;;;;;;;;;;5072709;28;20044;-76
2022/09/24 10:31:23;;;;;;;13.40;3.00;;;;;;;;;;5069723;28;20049;-75
2022/09/24 10:33:51;;;;;;;11.63;2.83;;;;;;;;;;5051397;28;20486;-73
2022/09/24 10:36:21;;;;;;;16.55;2.95;;;;;;;;;;5071404;28;20075;-70
2022/09/24 10:38:48;;;;;;;13.00;3.10;;;;;;;;;;5074455;28;20464;-74
2022/09/24 10:41:27;;;;;;;14.70;3.05;;;;;;;;;;5076508;28;20108;-74
2022/09/24 10:43:54;;;;;;;17.45;3.70;;;;;;;;;;5080309;28;20055;-74
2022/09/24 10:46:39;;;;;;;16.92;3.20;;;;;;;;;;5072104;28;20044;-76
2022/09/24 10:49:22;;;;;;;19.75;3.47;;;;;;;;;;5072025;28;20472;-84
2022/09/24 10:51:55;;;;;;;17.23;3.90;;;;;;;;;;5064805;28;20058;-80
2022/09/24 10:54:33;;;;;;;13.35;2.90;;;;;;;;;;5067804;28;20092;-80
2022/09/24 10:57:07;;;;;;;15.30;3.67;;;;;;;;;;5071409;28;20054;-80
2022/09/24 10:59:46;;;;;;;14.38;3.15;;;;;;;;;;5067441;28;20051;-79
2022/09/24 11:02:12;;;;;;;18.58;3.92;;;;;;;;;;5087102;28;20491;-76
2022/09/24 11:04:38;;;;;;;17.15;3.38;;;;;;;;;;5066311;28;20048;-73
2022/09/24 11:07:04;;;;;;;12.32;3.30;;;;;;;;;;5073375;28;20135;-74
2022/09/24 11:09:30;;;;;;;13.60;3.17;;;;;;;;;;5074010;28;20123;-77
2022/09/24 11:12:04;;;;;;;13.68;3.15;;;;;;;;;;5071297;28;20048;-79
2022/09/24 11:14:57;;;;;;;12.27;3.00;;;;;;;;;;5069038;28;20056;-80
2022/09/24 11:17:32;;;;;;;12.43;3.30;;;;;;;;;;5067916;28;20059;-84
2022/09/24 11:20:01;;;;;;;13.10;2.70;;;;;;;;;;5070146;28;20162;-77
2022/09/24 11:22:36;;;;;;;13.02;2.85;;;;;;;;;;5069720;28;20110;-83
2022/09/24 11:25:03;;;;;;;15.68;3.33;;;;;;;;;;5075075;28;20322;-82
2022/09/24 11:27:38;;;;;;;15.13;3.53;;;;;;;;;;5067373;28;20129;-78
2022/09/24 11:30:16;;;;;;;16.48;3.10;;;;;;;;;;5079386;28;20052;-85
2022/09/24 11:32:42;;;;;;;15.93;3.53;;;;;;;;;;5078108;28;20138;-74
2022/09/24 11:35:28;;;;;;;13.55;2.88;;;;;;;;;;5069863;28;20047;-82
2022/09/24 11:38:03;;;;;;;11.60;2.83;;;;;;;;;;5075139;28;20056;-82
2022/09/24 11:40:33;;;;;;;15.05;3.40;;;;;;;;;;5055515;28;20049;-89
2022/09/24 11:43:05;;;;;;;14.15;3.00;;;;;;;;;;5038631;28;20040;-86
2022/09/24 11:45:43;;;;;;;11.13;2.83;;;;;;;;;;5087329;28;20089;-82
2022/09/24 11:48:09;;;;;;;11.68;2.75;;;;;;;;;;5074257;28;20047;-88
2022/09/24 11:50:54;;;;;;;12.25;2.53;;;;;;;;;;5071131;28;20049;-85
2022/09/24 11:53:26;;;;;;;11.68;2.95;;;;;;;;;;5067457;28;20041;-81
2022/09/24 11:55:56;;;;;;;11.85;2.60;;;;;;;;;;5071911;28;20044;-81
2022/09/24 11:58:22;;;;;;;13.10;2.92;;;;;;;;;;5083074;28;20048;-86
2022/09/24 12:01:11;;;;;;;15.73;4.35;;;;;;;;;;5069954;28;20167;-79
2022/09/24 12:03:47;;;;;;;15.82;2.92;;;;;;;;;;5073912;28;20201;-74
2022/09/24 12:06:18;;;;;;;13.43;2.70;;;;;;;;;;5065792;28;20135;-76
2022/09/24 12:08:46;;;;;;;11.82;2.65;;;;;;;;;;5086556;28;20070;-73
2022/09/24 12:11:32;;;;;;;14.15;2.65;;;;;;;;;;5083703;28;20036;-71
2022/09/24 12:14:01;;;;;;;14.73;2.65;;;;;;;;;;5087804;28;20044;-73
2022/09/24 12:16:31;;;;;;;12.60;2.65;;;;;;;;;;5083823;28;20058;-72
2022/09/24 12:19:07;;;;;;;14.90;2.92;;;;;;;;;;5077114;28;20441;-74
2022/09/24 12:21:34;;;;;;;11.05;2.45;;;;;;;;;;5090405;28;20451;-73
2022/09/24 12:24:05;;;;;;;12.50;2.75;;;;;;;;;;5080405;28;20066;-79
2022/09/24 12:26:35;;;;;;;17.08;2.92;;;;;;;;;;5087156;28;20048;-74
2022/09/24 12:35:23;;;;;;;11.77;2.47;;;;;;;;;;5069055;28;20151;-71
2022/09/24 12:37:52;;;;;;;10.80;2.58;;;;;;;;;;5010656;28;20139;-69
2022/09/24 12:40:38;;;;;;;11.95;2.22;;;;;;;;;;5072514;28;20171;-74
2022/09/24 12:43:07;;;;;;;12.80;2.70;;;;;;;;;;5069384;28;20087;-75
2022/09/24 12:45:34;;;;;;;14.30;3.53;;;;;;;;;;5076124;28;20306;-76
2022/09/24 12:48:01;;;;;;;11.13;2.60;;;;;;;;;;5066458;28;20527;-74
2022/09/24 12:50:32;;;;;;;10.35;2.40;;;;;;;;;;5067068;28;20056;-72
2022/09/24 12:52:58;;;;;;;16.77;2.55;;;;;;;;;;5066967;28;20128;-73
2022/09/24 12:55:24;;;;;;;;;;;;;;;;;;5068409;28;20086;-76
2022/09/24 12:57:51;;;;;;;13.60;2.53;;;;;;;;;;5067343;28;19921;-81
2022/09/24 13:00:35;;;;;;;11.73;2.38;;;;;;;;;;5068315;28;20055;-77
2022/09/24 13:03:05;;;;;;;;;;;;;;;;;;5071780;28;20059;-80
2022/09/24 13:05:46;;;;;;;11.27;2.60;;;;;;;;;;5074020;28;19920;-76
2022/09/24 13:08:24;;;;;;;12.82;2.63;;;;;;;;;;5052293;28;20291;-77
2022/09/24 13:11:04;;;;;;;11.40;2.40;;;;;;;;;;5071954;28;20082;-75
2022/09/24 13:13:31;;;;;;;11.57;2.47;;;;;;;;;;5071369;28;20115;-80
2022/09/24 13:15:59;;;;;;;10.68;2.30;;;;;;;;;;5070501;28;20055;-80
2022/09/24 13:18:26;;;;;;;9.05;2.00;;;;;;;;;;5071423;28;20348;-79
2022/09/24 13:21:06;;;;;;;11.48;2.40;;;;;;;;;;5053125;28;20149;-73
2022/09/24 13:23:42;;;;;;;11.75;2.33;;;;;;;;;;5091837;28;20036;-76
2022/09/24 13:26:12;;;;;;;10.73;2.75;;;;;;;;;;5090578;28;20127;-73
2022/09/24 13:28:47;;;;;;;11.70;2.88;;;;;;;;;;5071044;28;20056;-73
2022/09/24 13:31:25;;;;;;;12.25;2.90;;;;;;;;;;5078591;28;20070;-70
2022/09/24 13:33:53;;;;;;;13.52;2.90;;;;;;;;;;5068422;28;20040;-72
2022/09/24 13:36:19;;;;;;;13.32;3.35;;;;;;;;;;5071065;28;20049;-70
2022/09/24 13:38:56;;;;;;;14.05;2.58;;;;;;;;;;5085435;28;20372;-69
2022/09/24 13:41:22;;;;;;;12.30;2.95;;;;;;;;;;5070017;28;20483;-69
2022/09/24 13:43:51;;;;;;;11.48;3.00;;;;;;;;;;5092041;28;20036;-71
2022/09/24 13:46:20;;;;;;;16.98;3.28;;;;;;;;;;5091145;28;20149;-69
2022/09/24 13:48:46;;;;;;;17.30;3.42;;;;;;;;;;5073221;28;20055;-74
2022/09/24 13:51:13;;;;;;;15.13;2.95;;;;;;;;;;5067265;28;20469;-69
2022/09/24 13:53:42;;;;;;;16.20;3.47;;;;;;;;;;5071459;28;20496;-69
2022/09/24 13:56:14;;;;;;;21.88;3.70;;;;;;;;;;5071180;28;20053;-69
2022/09/24 13:58:41;;;;;;;16.27;3.60;;;;;;;;;;5075815;28;20108;-72
2022/09/24 14:01:23;;;;;;;16.30;3.85;;;;;;;;;;5056995;28;20040;-73
2022/09/24 14:04:00;;;;;;;20.58;3.80;;;;;;;;;;5075374;28;20399;-72
2022/09/24 14:06:33;;;;;;;14.48;3.55;;;;;;;;;;5072241;28;20154;-72
2022/09/24 14:09:00;;;;;;;11.20;2.67;;;;;;;;;;5070903;28;20173;-75
2022/09/24 14:11:26;;;;;;;14.05;3.30;;;;;;;;;;5071869;28;20435;-76
2022/09/24 14:13:55;;;;;;;14.00;3.47;;;;;;;;;;5070261;28;20102;-77
2022/09/24 14:16:22;;;;;;;17.17;3.58;;;;;;;;;;5090643;28;20274;-76
2022/09/24 14:18:48;;;;;;;14.55;3.55;;;;;;;;;;5090538;28;20184;-77
2022/09/24 14:21:14;;;;;;;;;;;;;;;;;;5070165;28;20128;-73
2022/09/24 14:23:47;;;;;;;17.25;3.80;;;;;;;;;;5069494;28;20089;-78
2022/09/24 14:26:22;;;;;;;15.10;3.20;;;;;;;;;;5069555;28;20044;-75
2022/09/24 14:28:48;;;;;;;15.45;3.42;;;;;;;;;;5052509;28;20047;-73
2022/09/24 14:31:14;;;;;;;15.07;4.28;;;;;;;;;;5069759;28;20206;-73
2022/09/24 14:33:40;;;;;;;10.98;3.05;;;;;;;;;;5071917;28;20044;-73
2022/09/24 14:36:09;;;;;;;17.20;3.30;;;;;;;;;;5070007;28;20068;-72
2022/09/24 14:38:41;;;;;;;16.23;3.22;;;;;;;;;;5069921;28;20141;-71
2022/09/24 14:41:21;;;;;;;15.02;3.38;;;;;;;;;;5070137;28;20063;-70
2022/09/24 14:43:53;;;;;;;15.75;3.42;;;;;;;;;;5069592;28;20044;-69
2022/09/24 14:46:28;;;;;;;15.40;3.42;;;;;;;;;;5072631;28;20049;-70
2022/09/24 14:49:16;;;;;;;21.30;4.28;;;;;;;;;;5090688;28;20044;-70
2022/09/24 14:52:03;;;;;;;16.55;3.70;;;;;;;;;;5090261;28;20108;-70
2022/09/24 14:54:34;;;;;;;18.58;3.90;;;;;;;;;;5083823;28;20052;-70
2022/09/24 14:57:10;;;;;;;16.30;3.72;;;;;;;;;;5090440;28;20119;-72
2022/09/24 14:59:37;;;;;;;16.35;3.17;;;;;;;;;;5090988;28;20144;-72